createdAt,value
2018-06-23T00:01:41.489Z,68.37
2018-06-23T00:04:45.994Z,69.43
2018-06-23T00:07:50.899Z,69.29
2018-06-23T00:10:55.277Z,68.42
2018-06-23T00:14:00.132Z,69.62
2018-06-23T00:17:04.514Z,68.83
2018-06-23T00:20:08.834Z,69.53
2018-06-23T00:23:13.171Z,71.54
2018-06-23T00:26:31.802Z,73.44
2018-06-23T00:29:36.198Z,72.67
2018-06-23T00:32:40.806Z,72.27
2018-06-23T00:35:45.107Z,72.25
2018-06-23T00:38:49.537Z,71.62
2018-06-23T00:41:54.044Z,70.70
2018-06-23T00:44:58.417Z,70.68
2018-06-23T00:48:02.934Z,70.08
2018-06-23T00:51:18.088Z,70.15
2018-06-23T00:54:22.567Z,70.41
2018-06-23T00:57:27.542Z,70.50
2018-06-23T01:00:31.845Z,70.35
2018-06-23T01:03:36.434Z,69.47
2018-06-23T01:06:40.763Z,68.69
2018-06-23T01:09:45.208Z,68.00
2018-06-23T01:12:49.497Z,67.85
2018-06-23T01:15:53.781Z,68.02
2018-06-23T01:18:58.116Z,68.72
2018-06-23T01:22:02.428Z,69.02
2018-06-23T01:25:06.940Z,68.57
2018-06-23T01:28:10.964Z,68.33
2018-06-23T01:31:15.644Z,68.39
2018-06-23T01:34:19.920Z,69.33
2018-06-23T01:37:24.244Z,69.50
2018-06-23T01:40:30.173Z,69.84
2018-06-23T01:43:35.053Z,70.53
2018-06-23T01:46:39.373Z,70.14
2018-06-23T01:49:43.659Z,69.35
2018-06-23T01:52:48.201Z,69.69
2018-06-23T01:55:52.496Z,70.27
2018-06-23T01:58:56.787Z,69.94
2018-06-23T02:02:01.579Z,69.73
2018-06-23T02:05:06.032Z,68.79
2018-06-23T02:08:10.300Z,69.96
2018-06-23T02:11:15.534Z,69.94
2018-06-23T02:14:25.042Z,69.72
2018-06-23T02:17:34.618Z,70.37
2018-06-23T02:21:43.101Z,69.86
2018-06-23T02:24:52.695Z,70.30
2018-06-23T02:28:02.362Z,69.92
2018-06-23T02:31:11.979Z,69.71
2018-06-23T02:34:21.639Z,70.08
2018-06-23T02:37:25.987Z,70.32
2018-06-23T02:40:30.250Z,69.84
2018-06-23T02:43:35.785Z,69.85
2018-06-23T02:46:40.113Z,70.86
2018-06-23T02:49:44.501Z,70.32
2018-06-23T02:52:48.916Z,70.04
2018-06-23T02:55:53.213Z,70.25
2018-06-23T02:58:57.591Z,70.83
2018-06-23T03:02:01.873Z,70.94
2018-06-23T03:05:07.154Z,71.00
2018-06-23T03:08:11.406Z,70.78
2018-06-23T03:11:15.727Z,70.48
2018-06-23T03:14:20.148Z,71.06
2018-06-23T03:17:24.409Z,71.36
2018-06-23T03:20:30.486Z,71.83
2018-06-23T03:23:35.332Z,71.55
2018-06-23T03:26:39.619Z,72.67
2018-06-23T03:29:43.889Z,72.03
2018-06-23T03:32:48.191Z,72.59
2018-06-23T03:35:53.136Z,72.02
2018-06-23T03:38:57.434Z,72.47
2018-06-23T03:42:01.725Z,72.66
2018-06-23T03:45:06.064Z,73.15
2018-06-23T03:48:10.160Z,72.83
2018-06-23T03:51:14.522Z,72.07
2018-06-23T03:54:18.868Z,71.73
2018-06-23T03:57:23.254Z,71.22
2018-06-23T04:00:28.132Z,71.02
2018-06-23T04:03:32.606Z,70.96
2018-06-23T04:06:37.037Z,70.23
2018-06-23T04:09:41.294Z,70.18
2018-06-23T04:12:45.678Z,69.96
2018-06-23T04:15:50.089Z,69.74
2018-06-23T04:18:57.302Z,68.39
2018-06-23T04:22:02.548Z,68.45
2018-06-23T04:25:06.995Z,68.12
2018-06-23T04:28:12.377Z,68.07
2018-06-23T04:31:16.632Z,66.94
2018-06-23T04:34:20.954Z,66.97
2018-06-23T04:37:25.290Z,65.93
2018-06-23T04:40:29.963Z,65.89
2018-06-23T04:43:34.670Z,65.64
2018-06-23T04:46:38.928Z,64.98
2018-06-23T04:49:44.226Z,64.52
2018-06-23T04:52:48.585Z,64.82
2018-06-23T04:55:53.163Z,64.69
2018-06-23T04:58:57.476Z,65.33
2018-06-23T05:02:01.827Z,63.65
2018-06-23T05:05:06.143Z,65.21
2018-06-23T05:08:10.437Z,64.64
2018-06-23T05:11:15.702Z,65.63
2018-06-23T05:14:20.711Z,65.65
2018-06-23T05:17:25.059Z,64.65
2018-06-23T05:20:29.482Z,65.41
2018-06-23T05:23:35.542Z,66.89
2018-06-23T05:26:39.958Z,66.73
2018-06-23T05:29:44.487Z,67.12
2018-06-23T05:32:48.844Z,67.82
2018-06-23T05:35:53.664Z,66.48
2018-06-23T05:38:59.119Z,66.58
2018-06-23T05:42:03.752Z,66.36
2018-06-23T05:45:08.185Z,67.78
2018-06-23T05:48:13.077Z,66.40
2018-06-23T05:51:19.082Z,66.93
2018-06-23T05:54:23.401Z,65.80
2018-06-23T05:57:27.727Z,65.63
2018-06-23T06:00:32.227Z,64.83
2018-06-23T06:03:36.735Z,64.17
2018-06-23T06:06:40.772Z,63.34
2018-06-23T06:09:45.042Z,62.01
2018-06-23T06:12:49.367Z,59.95
2018-06-23T06:15:53.669Z,58.31
2018-06-23T06:18:58.985Z,60.16
2018-06-23T06:22:03.420Z,61.60
2018-06-23T06:25:08.323Z,60.38
2018-06-23T06:28:13.561Z,58.56
2018-06-23T06:31:17.882Z,57.72
2018-06-23T06:34:23.351Z,58.74
2018-06-23T06:37:28.437Z,56.41
2018-06-23T06:40:32.762Z,53.20
2018-06-23T06:43:37.180Z,58.49
2018-06-23T06:46:41.639Z,60.14
2018-06-23T06:49:45.958Z,59.84
2018-06-23T06:52:50.408Z,57.69
2018-06-23T06:55:54.770Z,59.39
2018-06-23T06:58:59.334Z,60.59
2018-06-23T07:02:03.666Z,58.81
2018-06-23T07:05:08.011Z,59.00
2018-06-23T07:08:12.310Z,55.94
2018-06-23T07:11:16.710Z,51.22
2018-06-23T07:14:21.047Z,49.32
2018-06-23T07:17:25.344Z,48.27
2018-06-23T07:20:30.800Z,46.48
2018-06-23T07:23:36.590Z,44.69
2018-06-23T07:26:41.252Z,49.43
2018-06-23T07:29:45.683Z,50.06
2018-06-23T07:32:50.056Z,50.62
2018-06-23T07:35:54.650Z,54.07
2018-06-23T07:38:59.486Z,55.23
2018-06-23T07:42:05.252Z,54.66
2018-06-23T07:45:09.327Z,54.83
2018-06-23T07:48:13.637Z,54.89
2018-06-23T07:51:17.962Z,53.07
2018-06-23T07:54:22.314Z,52.72
2018-06-23T07:57:26.632Z,55.68
2018-06-23T08:00:31.081Z,52.23
2018-06-23T08:03:37.667Z,55.40
2018-06-23T08:06:42.171Z,55.52
2018-06-23T08:09:46.478Z,53.92
2018-06-23T08:12:51.963Z,52.36
2018-06-23T08:15:56.301Z,50.47
2018-06-23T08:19:00.626Z,46.74
2018-06-23T08:22:05.779Z,53.22
2018-06-23T08:25:10.085Z,53.01
2018-06-23T08:28:14.585Z,53.10
2018-06-23T08:31:18.921Z,50.42
2018-06-23T08:34:24.523Z,50.44
2018-06-23T08:37:30.008Z,48.69
2018-06-23T08:40:34.993Z,50.68
2018-06-23T08:43:39.505Z,47.20
2018-06-23T08:46:45.344Z,45.63
2018-06-23T08:49:50.816Z,49.66
2018-06-23T08:52:55.292Z,51.99
2018-06-23T08:55:59.736Z,50.76
2018-06-23T08:59:04.090Z,50.27
2018-06-23T09:02:09.775Z,50.83
2018-06-23T09:05:14.161Z,51.33
2018-06-23T09:08:18.528Z,47.27
2018-06-23T09:11:23.294Z,51.02
2018-06-23T09:14:27.722Z,51.27
2018-06-23T09:17:32.094Z,48.17
2018-06-23T09:20:36.577Z,48.91
2018-06-23T09:23:40.965Z,48.55
2018-06-23T09:26:45.318Z,48.78
2018-06-23T09:29:49.646Z,48.92
2018-06-23T09:32:54.330Z,45.96
2018-06-23T09:35:58.710Z,46.87
2018-06-23T09:39:03.329Z,45.86
2018-06-23T09:42:07.845Z,43.97
2018-06-23T09:45:12.196Z,45.04
2018-06-23T09:48:16.932Z,46.62
2018-06-23T09:51:21.611Z,46.58
2018-06-23T09:54:26.393Z,46.48
2018-06-23T09:57:30.898Z,45.92
2018-06-23T10:00:35.324Z,43.44
2018-06-23T10:03:39.751Z,43.41
2018-06-23T10:06:45.130Z,41.17
2018-06-23T10:09:49.561Z,42.14
2018-06-23T10:12:54.144Z,45.06
2018-06-23T10:15:59.395Z,45.32
2018-06-23T10:19:03.817Z,44.11
2018-06-23T10:22:08.314Z,46.58
2018-06-23T10:25:12.727Z,48.02
2018-06-23T10:28:17.286Z,46.43
2018-06-23T10:31:21.906Z,46.00
2018-06-23T10:34:26.409Z,42.01
2018-06-23T10:37:30.856Z,43.04
2018-06-23T10:40:35.786Z,43.49
2018-06-23T10:43:40.596Z,44.08
2018-06-23T10:46:46.957Z,42.29
2018-06-23T10:49:51.506Z,44.10
2018-06-23T10:52:55.972Z,43.76
2018-06-23T10:56:00.414Z,43.12
2018-06-23T10:59:04.977Z,46.52
2018-06-23T11:02:09.364Z,42.94
2018-06-23T11:05:13.885Z,44.76
2018-06-23T11:08:18.580Z,41.28
2018-06-23T11:11:23.013Z,42.92
2018-06-23T11:14:27.512Z,42.92
2018-06-23T11:17:32.176Z,41.81
2018-06-23T11:20:36.509Z,42.25
2018-06-23T11:23:40.870Z,44.21
2018-06-23T11:26:45.307Z,43.87
2018-06-23T11:29:49.760Z,44.91
2018-06-23T11:32:54.260Z,41.53
2018-06-23T11:35:58.627Z,42.23
2018-06-23T11:39:02.937Z,39.95
2018-06-23T11:42:07.314Z,41.74
2018-06-23T11:45:11.681Z,44.05
2018-06-23T11:48:16.107Z,44.11
2018-06-23T11:51:20.433Z,44.95
2018-06-23T11:54:24.862Z,43.63
2018-06-23T11:57:29.172Z,42.92
2018-06-23T12:00:33.488Z,41.98
2018-06-23T12:03:37.764Z,43.10
2018-06-23T12:06:43.352Z,44.07
2018-06-23T12:09:47.830Z,45.02
2018-06-23T12:12:52.337Z,45.17
2018-06-23T12:15:56.701Z,46.45
2018-06-23T12:19:01.021Z,47.12
2018-06-23T12:22:05.497Z,43.06
2018-06-23T12:25:10.003Z,43.46
2018-06-23T12:28:14.421Z,43.53
2018-06-23T12:31:18.734Z,44.47
2018-06-23T12:34:22.912Z,42.00
2018-06-23T12:37:28.588Z,42.70
2018-06-23T12:43:44.246Z,43.43
2018-06-23T12:46:48.608Z,41.40
2018-06-23T12:49:53.172Z,43.21
2018-06-23T12:52:57.863Z,43.62
2018-06-23T12:56:02.302Z,42.17
2018-06-23T12:59:06.597Z,44.77
2018-06-23T13:02:11.446Z,42.98
2018-06-23T13:05:15.780Z,44.48
2018-06-23T13:08:20.184Z,44.09
2018-06-23T13:11:25.523Z,40.71
2018-06-23T13:14:30.853Z,43.00
2018-06-23T13:17:35.860Z,40.86
2018-06-23T13:20:41.205Z,43.22
2018-06-23T13:23:45.513Z,40.31
2018-06-23T13:26:50.465Z,44.05
2018-06-23T13:29:54.784Z,42.71
2018-06-23T13:32:59.646Z,42.75
2018-06-23T13:36:03.963Z,43.66
2018-06-23T13:39:10.063Z,43.96
2018-06-23T13:42:14.453Z,40.74
2018-06-23T13:45:18.748Z,43.49
2018-06-23T13:48:23.341Z,44.38
2018-06-23T13:51:27.721Z,43.77
2018-06-23T13:54:32.439Z,43.39
2018-06-23T13:57:36.655Z,45.36
2018-06-23T14:00:41.102Z,42.96
2018-06-23T14:03:45.634Z,41.45
2018-06-23T14:06:50.492Z,42.18
2018-06-23T14:09:54.814Z,42.67
2018-06-23T14:12:59.413Z,41.35
2018-06-23T14:16:04.828Z,40.76
2018-06-23T14:19:09.346Z,43.21
2018-06-23T14:22:13.912Z,42.57
2018-06-23T14:25:18.292Z,40.86
2018-06-23T14:28:22.751Z,42.97
2018-06-23T14:31:27.150Z,42.80
2018-06-23T14:34:31.545Z,42.97
2018-06-23T14:37:36.681Z,43.97
2018-06-23T14:40:41.561Z,45.31
2018-06-23T14:43:46.047Z,45.30
2018-06-23T14:46:50.700Z,45.85
2018-06-23T14:49:55.480Z,45.96
2018-06-23T14:53:00.205Z,45.99
2018-06-23T14:56:04.642Z,45.91
2018-06-23T14:59:09.205Z,46.47
2018-06-23T15:02:13.616Z,46.13
2018-06-23T15:05:18.027Z,46.49
2018-06-23T15:08:39.645Z,47.28
2018-06-23T15:12:01.196Z,44.42
2018-06-23T15:15:05.612Z,46.23
2018-06-23T15:18:10.686Z,46.19
2018-06-23T15:21:15.441Z,43.28
2018-06-23T15:24:20.015Z,43.04
2018-06-23T15:27:25.250Z,42.73
2018-06-23T15:30:29.669Z,42.56
2018-06-23T15:33:34.915Z,41.84
2018-06-23T15:36:39.363Z,42.39
2018-06-23T15:39:43.690Z,41.54
2018-06-23T15:42:48.138Z,43.19
2018-06-23T15:45:52.616Z,43.87
2018-06-23T15:48:57.003Z,43.48
2018-06-23T15:52:01.670Z,43.88
2018-06-23T15:55:06.349Z,44.56
2018-06-23T15:58:11.330Z,45.76
2018-06-23T16:01:15.787Z,46.19
2018-06-23T16:04:20.502Z,45.55
2018-06-23T16:07:25.114Z,46.58
2018-06-23T16:10:29.533Z,45.70
2018-06-23T16:13:34.893Z,45.26
2018-06-23T16:16:39.350Z,45.73
2018-06-23T16:20:41.289Z,46.57
2018-06-23T16:23:50.011Z,48.21
2018-06-23T16:26:54.421Z,48.76
2018-06-23T16:29:58.850Z,48.39
2018-06-23T16:33:03.459Z,46.33
2018-06-23T16:36:07.906Z,45.94
2018-06-23T16:39:12.511Z,47.50
2018-06-23T16:42:16.816Z,47.02
2018-06-23T16:45:21.113Z,48.55
2018-06-23T16:48:25.533Z,48.03
2018-06-23T16:51:29.988Z,48.07
2018-06-23T16:54:34.588Z,48.41
2018-06-23T16:57:38.992Z,46.07
2018-06-23T17:00:43.473Z,47.80
2018-06-23T17:03:48.564Z,46.08
2018-06-23T17:06:53.106Z,48.26
2018-06-23T17:09:57.437Z,47.56
2018-06-23T17:13:02.749Z,45.48
2018-06-23T17:16:07.625Z,46.59
2018-06-23T17:19:12.078Z,49.14
2018-06-23T17:22:16.406Z,48.28
2018-06-23T17:25:22.376Z,49.05
2018-06-23T17:28:26.824Z,47.66
2018-06-23T17:31:31.294Z,47.56
2018-06-23T17:34:35.912Z,49.21
2018-06-23T17:37:40.606Z,51.02
2018-06-23T17:40:46.252Z,49.44
2018-06-23T17:43:50.601Z,48.90
2018-06-23T17:46:55.094Z,49.69
2018-06-23T17:50:00.170Z,48.64
2018-06-23T17:53:04.665Z,50.17
2018-06-23T17:56:09.162Z,51.28
2018-06-23T17:59:13.525Z,50.98
2018-06-23T18:02:18.369Z,50.44
2018-06-23T18:05:23.510Z,50.07
2018-06-23T18:08:27.963Z,51.09
2018-06-23T18:11:32.519Z,52.11
2018-06-23T18:14:38.176Z,55.38
2018-06-23T18:17:42.588Z,56.94
2018-06-23T18:20:47.096Z,59.49
2018-06-23T18:23:52.754Z,60.55
2018-06-23T18:26:57.134Z,62.01
2018-06-23T18:30:02.264Z,63.50
2018-06-23T18:33:06.864Z,63.86
2018-06-23T18:36:11.297Z,64.08
2018-06-23T18:39:15.848Z,63.19
2018-06-23T18:42:20.386Z,63.20
2018-06-23T18:45:24.788Z,61.97
2018-06-23T18:48:29.613Z,62.23
2018-06-23T18:51:34.086Z,62.71
2018-06-23T18:54:38.642Z,62.71
2018-06-23T18:57:43.076Z,62.25
2018-06-23T19:00:47.470Z,61.77
2018-06-23T19:03:51.833Z,62.05
2018-06-23T19:06:56.338Z,63.51
2018-06-23T19:10:00.707Z,62.59
2018-06-23T19:13:05.362Z,62.16
2018-06-23T19:16:09.843Z,62.47
2018-06-23T19:19:14.441Z,61.39
2018-06-23T19:22:18.728Z,62.96
2018-06-23T19:25:23.133Z,63.54
2018-06-23T19:28:27.583Z,63.55
2018-06-23T19:31:32.682Z,63.54
2018-06-23T19:34:37.044Z,63.48
2018-06-23T19:37:41.464Z,63.35
2018-06-23T19:40:46.166Z,62.72
2018-06-23T19:43:51.545Z,62.01
2018-06-23T19:46:56.000Z,63.05
2018-06-23T19:50:00.969Z,60.67
2018-06-23T19:53:05.377Z,63.75
2018-06-23T19:56:09.941Z,61.85
2018-06-23T19:59:14.520Z,62.34
2018-06-23T20:02:19.163Z,61.43
2018-06-23T20:05:23.468Z,62.50
2018-06-23T20:08:27.910Z,61.76
2018-06-23T20:11:32.245Z,62.49
2018-06-23T20:14:36.637Z,62.26
2018-06-23T20:18:11.414Z,61.80
2018-06-23T20:21:35.893Z,62.18
2018-06-23T20:24:40.572Z,64.10
2018-06-23T20:27:45.645Z,64.85
2018-06-23T20:30:50.301Z,64.52
2018-06-23T20:33:55.268Z,65.42
2018-06-23T20:36:59.988Z,66.44
2018-06-23T20:40:05.441Z,66.05
2018-06-23T20:43:09.956Z,65.00
2018-06-23T20:46:14.564Z,66.33
2018-06-23T20:49:19.372Z,66.74
2018-06-23T20:52:24.113Z,67.30
2018-06-23T20:55:28.861Z,66.10
2018-06-23T20:58:33.412Z,66.60
2018-06-23T21:01:38.032Z,67.45
2018-06-23T21:04:43.071Z,66.47
2018-06-23T21:07:49.741Z,67.57
2018-06-23T21:10:58.788Z,66.74
2018-06-23T21:14:03.788Z,67.10
2018-06-23T21:17:08.063Z,66.21
2018-06-23T21:20:12.338Z,67.48
2018-06-23T21:23:16.639Z,67.72
2018-06-23T21:26:21.160Z,69.14
2018-06-23T21:29:25.805Z,69.90
2018-06-23T21:32:30.106Z,70.01
2018-06-23T21:35:34.406Z,70.63
2018-06-23T21:38:39.337Z,69.20
2018-06-23T21:41:43.618Z,69.84
2018-06-23T21:44:47.986Z,69.89
2018-06-23T21:47:52.409Z,69.51
2018-06-23T21:50:57.089Z,69.32
2018-06-23T21:54:02.081Z,69.83
2018-06-23T21:57:06.893Z,70.01
2018-06-23T22:00:45.866Z,69.12
2018-06-23T22:03:50.273Z,71.70
2018-06-23T22:06:54.662Z,73.06
2018-06-23T22:09:59.314Z,72.85
2018-06-23T22:13:03.961Z,72.99
2018-06-23T22:16:08.245Z,71.75
2018-06-23T22:19:12.564Z,72.09
2018-06-23T22:22:16.989Z,71.34
2018-06-23T22:25:22.055Z,71.71
2018-06-23T22:28:26.426Z,70.34
2018-06-23T22:31:30.843Z,71.45
2018-06-23T22:34:35.853Z,70.14
2018-06-23T22:37:40.509Z,71.91
2018-06-23T22:40:44.806Z,70.03
2018-06-23T22:43:49.309Z,70.33
2018-06-23T22:46:54.224Z,70.49
2018-06-23T22:49:58.557Z,70.55
2018-06-23T22:53:02.844Z,69.67
2018-06-23T22:56:07.269Z,70.97
2018-06-23T22:59:11.544Z,69.46
2018-06-23T23:02:15.838Z,69.68
2018-06-23T23:05:20.709Z,69.32
2018-06-23T23:08:25.125Z,70.70
2018-06-23T23:11:29.393Z,69.53
2018-06-23T23:14:33.743Z,71.37
2018-06-23T23:17:38.289Z,73.78
2018-06-23T23:20:42.578Z,72.66
2018-06-23T23:23:46.865Z,71.45
2018-06-23T23:26:51.424Z,73.18
2018-06-23T23:29:56.025Z,72.29
2018-06-23T23:33:00.512Z,71.43
2018-06-23T23:36:05.995Z,71.47
2018-06-23T23:39:11.450Z,72.28
2018-06-23T23:42:15.748Z,70.54
2018-06-23T23:45:20.399Z,71.95
2018-06-23T23:48:24.443Z,73.22
2018-06-23T23:51:28.866Z,72.19
2018-06-23T23:54:33.174Z,72.10
2018-06-23T23:57:55.180Z,72.80
